sensor_id;sensor_type;location;lat;lon;timestamp;P1;durP1;ratioP1;P2;durP2;ratioP2
6197;SDS011;3132;42.622;23.328;2023-04-15T00:02:20;16.47;;;10.77;;
6197;SDS011;3132;42.622;23.328;2023-04-15T00:04:45;10.30;;;9.60;;
6197;SDS011;3132;42.622;23.328;2023-04-15T00:07:12;10.97;;;10.37;;
6197;SDS011;3132;42.622;23.328;2023-04-15T00:09:37;9.77;;;9.07;;
6197;SDS011;3132;42.622;23.328;2023-04-15T00:12:03;11.10;;;10.50;;
6197;SDS011;3132;42.622;23.328;2023-04-15T00:14:29;10.33;;;9.73;;
6197;SDS011;3132;42.622;23.328;2023-04-15T00:16:55;10.10;;;9.50;;
6197;SDS011;3132;42.622;23.328;2023-04-15T00:19:21;10.10;;;9.43;;
6197;SDS011;3132;42.622;23.328;2023-04-15T00:21:48;9.87;;;9.17;;
6197;SDS011;3132;42.622;23.328;2023-04-15T00:24:13;10.67;;;10.17;;
6197;SDS011;3132;42.622;23.328;2023-04-15T00:26:38;9.47;;;9.07;;
6197;SDS011;3132;42.622;23.328;2023-04-15T00:29:04;9.33;;;8.93;;
6197;SDS011;3132;42.622;23.328;2023-04-15T00:31:30;11.10;;;10.17;;
6197;SDS011;3132;42.622;23.328;2023-04-15T00:33:56;10.47;;;9.87;;
6197;SDS011;3132;42.622;23.328;2023-04-15T00:36:22;11.73;;;10.63;;
6197;SDS011;3132;42.622;23.328;2023-04-15T00:38:48;10.97;;;10.47;;
6197;SDS011;3132;42.622;23.328;2023-04-15T00:41:13;12.83;;;11.93;;
6197;SDS011;3132;42.622;23.328;2023-04-15T00:43:39;12.50;;;11.70;;
6197;SDS011;3132;42.622;23.328;2023-04-15T00:46:05;13.20;;;12.20;;
6197;SDS011;3132;42.622;23.328;2023-04-15T00:48:31;12.47;;;11.70;;
6197;SDS011;3132;42.622;23.328;2023-04-15T00:50:57;11.33;;;10.53;;
6197;SDS011;3132;42.622;23.328;2023-04-15T00:53:22;12.10;;;11.10;;
6197;SDS011;3132;42.622;23.328;2023-04-15T00:55:48;11.40;;;10.50;;
6197;SDS011;3132;42.622;23.328;2023-04-15T00:58:14;10.97;;;10.30;;
6197;SDS011;3132;42.622;23.328;2023-04-15T01:00:41;10.93;;;9.93;;
6197;SDS011;3132;42.622;23.328;2023-04-15T01:03:07;11.23;;;10.57;;
6197;SDS011;3132;42.622;23.328;2023-04-15T01:05:32;11.23;;;10.27;;
6197;SDS011;3132;42.622;23.328;2023-04-15T01:07:58;10.77;;;9.87;;
6197;SDS011;3132;42.622;23.328;2023-04-15T01:10:24;11.73;;;10.87;;
6197;SDS011;3132;42.622;23.328;2023-04-15T01:12:49;11.03;;;10.43;;
6197;SDS011;3132;42.622;23.328;2023-04-15T01:15:15;9.07;;;8.67;;
6197;SDS011;3132;42.622;23.328;2023-04-15T01:17:41;10.23;;;9.73;;
6197;SDS011;3132;42.622;23.328;2023-04-15T01:20:06;10.63;;;10.13;;
6197;SDS011;3132;42.622;23.328;2023-04-15T01:22:35;9.50;;;8.90;;
6197;SDS011;3132;42.622;23.328;2023-04-15T01:25:04;10.00;;;9.30;;
6197;SDS011;3132;42.622;23.328;2023-04-15T01:27:33;10.43;;;9.93;;
6197;SDS011;3132;42.622;23.328;2023-04-15T01:29:59;10.57;;;10.03;;
6197;SDS011;3132;42.622;23.328;2023-04-15T01:32:25;11.10;;;10.20;;
6197;SDS011;3132;42.622;23.328;2023-04-15T01:34:51;10.53;;;9.77;;
6197;SDS011;3132;42.622;23.328;2023-04-15T01:37:16;10.80;;;10.20;;
6197;SDS011;3132;42.622;23.328;2023-04-15T01:39:41;10.77;;;10.27;;
6197;SDS011;3132;42.622;23.328;2023-04-15T01:42:07;9.70;;;9.10;;
6197;SDS011;3132;42.622;23.328;2023-04-15T01:44:32;9.87;;;9.47;;
6197;SDS011;3132;42.622;23.328;2023-04-15T01:46:58;11.83;;;11.03;;
6197;SDS011;3132;42.622;23.328;2023-04-15T01:49:23;11.40;;;10.70;;
6197;SDS011;3132;42.622;23.328;2023-04-15T01:51:49;11.93;;;10.87;;
6197;SDS011;3132;42.622;23.328;2023-04-15T01:54:14;10.83;;;10.23;;
6197;SDS011;3132;42.622;23.328;2023-04-15T01:56:39;10.27;;;9.57;;
6197;SDS011;3132;42.622;23.328;2023-04-15T01:59:05;10.17;;;9.63;;
6197;SDS011;3132;42.622;23.328;2023-04-15T02:01:30;10.23;;;9.47;;
6197;SDS011;3132;42.622;23.328;2023-04-15T02:03:55;10.87;;;10.30;;
6197;SDS011;3132;42.622;23.328;2023-04-15T02:06:21;10.37;;;9.67;;
6197;SDS011;3132;42.622;23.328;2023-04-15T02:08:46;10.33;;;9.83;;
6197;SDS011;3132;42.622;23.328;2023-04-15T02:11:12;10.70;;;10.20;;
6197;SDS011;3132;42.622;23.328;2023-04-15T02:13:37;11.27;;;10.47;;
6197;SDS011;3132;42.622;23.328;2023-04-15T02:16:02;11.50;;;10.53;;
6197;SDS011;3132;42.622;23.328;2023-04-15T02:18:28;10.37;;;9.77;;
6197;SDS011;3132;42.622;23.328;2023-04-15T02:20:54;11.37;;;10.67;;
6197;SDS011;3132;42.622;23.328;2023-04-15T02:23:21;11.73;;;10.97;;
6197;SDS011;3132;42.622;23.328;2023-04-15T02:25:46;10.93;;;10.33;;
6197;SDS011;3132;42.622;23.328;2023-04-15T02:28:12;10.30;;;9.77;;
6197;SDS011;3132;42.622;23.328;2023-04-15T02:30:37;11.93;;;10.93;;
6197;SDS011;3132;42.622;23.328;2023-04-15T02:33:04;10.00;;;9.33;;
6197;SDS011;3132;42.622;23.328;2023-04-15T02:35:31;12.47;;;11.67;;
6197;SDS011;3132;42.622;23.328;2023-04-15T02:37:56;10.40;;;9.90;;
6197;SDS011;3132;42.622;23.328;2023-04-15T02:40:22;10.40;;;9.90;;
6197;SDS011;3132;42.622;23.328;2023-04-15T02:42:47;10.23;;;9.43;;
6197;SDS011;3132;42.622;23.328;2023-04-15T02:45:13;8.83;;;8.43;;
6197;SDS011;3132;42.622;23.328;2023-04-15T02:47:38;9.00;;;8.60;;
6197;SDS011;3132;42.622;23.328;2023-04-15T02:50:09;10.00;;;9.43;;
6197;SDS011;3132;42.622;23.328;2023-04-15T02:52:38;8.73;;;8.23;;
6197;SDS011;3132;42.622;23.328;2023-04-15T02:55:05;9.63;;;9.23;;
6197;SDS011;3132;42.622;23.328;2023-04-15T02:57:30;9.10;;;8.60;;
6197;SDS011;3132;42.622;23.328;2023-04-15T02:59:56;8.73;;;8.33;;
6197;SDS011;3132;42.622;23.328;2023-04-15T03:02:21;9.07;;;8.67;;
6197;SDS011;3132;42.622;23.328;2023-04-15T03:04:47;9.20;;;8.47;;
6197;SDS011;3132;42.622;23.328;2023-04-15T03:07:13;9.20;;;8.43;;
6197;SDS011;3132;42.622;23.328;2023-04-15T03:09:38;10.17;;;9.67;;
6197;SDS011;3132;42.622;23.328;2023-04-15T03:12:05;9.93;;;9.43;;
6197;SDS011;3132;42.622;23.328;2023-04-15T03:14:30;9.40;;;9.00;;
6197;SDS011;3132;42.622;23.328;2023-04-15T03:16:56;10.10;;;9.60;;
6197;SDS011;3132;42.622;23.328;2023-04-15T03:19:23;9.23;;;8.73;;
6197;SDS011;3132;42.622;23.328;2023-04-15T03:21:48;9.43;;;9.03;;
6197;SDS011;3132;42.622;23.328;2023-04-15T03:24:14;10.13;;;9.50;;
6197;SDS011;3132;42.622;23.328;2023-04-15T03:26:39;9.63;;;9.10;;
6197;SDS011;3132;42.622;23.328;2023-04-15T03:29:05;8.93;;;8.27;;
6197;SDS011;3132;42.622;23.328;2023-04-15T03:31:30;11.47;;;10.77;;
6197;SDS011;3132;42.622;23.328;2023-04-15T03:33:55;11.27;;;10.47;;
6197;SDS011;3132;42.622;23.328;2023-04-15T03:36:21;10.50;;;9.87;;
6197;SDS011;3132;42.622;23.328;2023-04-15T03:38:46;11.27;;;10.63;;
6197;SDS011;3132;42.622;23.328;2023-04-15T03:41:13;10.13;;;9.43;;
6197;SDS011;3132;42.622;23.328;2023-04-15T03:43:38;10.70;;;10.10;;
6197;SDS011;3132;42.622;23.328;2023-04-15T03:46:04;10.60;;;9.90;;
6197;SDS011;3132;42.622;23.328;2023-04-15T03:48:29;11.00;;;10.33;;
6197;SDS011;3132;42.622;23.328;2023-04-15T03:50:55;10.53;;;9.63;;
6197;SDS011;3132;42.622;23.328;2023-04-15T03:53:20;11.57;;;10.77;;
6197;SDS011;3132;42.622;23.328;2023-04-15T03:55:46;11.47;;;10.77;;
6197;SDS011;3132;42.622;23.328;2023-04-15T03:58:11;11.43;;;10.60;;
6197;SDS011;3132;42.622;23.328;2023-04-15T04:00:37;12.03;;;11.23;;
6197;SDS011;3132;42.622;23.328;2023-04-15T04:03:03;10.47;;;9.73;;
6197;SDS011;3132;42.622;23.328;2023-04-15T04:05:29;10.20;;;9.33;;
6197;SDS011;3132;42.622;23.328;2023-04-15T04:07:54;11.60;;;10.90;;
6197;SDS011;3132;42.622;23.328;2023-04-15T04:10:20;10.73;;;10.23;;
6197;SDS011;3132;42.622;23.328;2023-04-15T04:12:45;8.73;;;8.17;;
6197;SDS011;3132;42.622;23.328;2023-04-15T04:15:11;10.00;;;9.50;;
6197;SDS011;3132;42.622;23.328;2023-04-15T04:17:36;10.50;;;9.77;;
6197;SDS011;3132;42.622;23.328;2023-04-15T04:20:01;10.20;;;9.70;;
6197;SDS011;3132;42.622;23.328;2023-04-15T04:22:27;10.83;;;9.67;;
6197;SDS011;3132;42.622;23.328;2023-04-15T04:24:52;11.97;;;10.87;;
6197;SDS011;3132;42.622;23.328;2023-04-15T04:27:18;11.20;;;10.10;;
6197;SDS011;3132;42.622;23.328;2023-04-15T04:29:43;10.37;;;9.57;;
6197;SDS011;3132;42.622;23.328;2023-04-15T04:32:08;10.60;;;9.70;;
6197;SDS011;3132;42.622;23.328;2023-04-15T04:34:34;11.67;;;10.63;;
6197;SDS011;3132;42.622;23.328;2023-04-15T04:37:00;11.00;;;10.20;;
6197;SDS011;3132;42.622;23.328;2023-04-15T04:39:25;12.43;;;11.57;;
6197;SDS011;3132;42.622;23.328;2023-04-15T04:41:50;12.47;;;11.43;;
6197;SDS011;3132;42.622;23.328;2023-04-15T04:44:16;11.83;;;10.93;;
6197;SDS011;3132;42.622;23.328;2023-04-15T04:46:42;12.07;;;11.17;;
6197;SDS011;3132;42.622;23.328;2023-04-15T04:49:07;11.33;;;10.40;;
6197;SDS011;3132;42.622;23.328;2023-04-15T04:51:33;11.50;;;10.70;;
6197;SDS011;3132;42.622;23.328;2023-04-15T04:53:58;13.67;;;12.57;;
6197;SDS011;3132;42.622;23.328;2023-04-15T04:56:24;13.23;;;11.93;;
6197;SDS011;3132;42.622;23.328;2023-04-15T04:58:49;12.33;;;11.30;;
6197;SDS011;3132;42.622;23.328;2023-04-15T05:01:15;12.83;;;11.80;;
6197;SDS011;3132;42.622;23.328;2023-04-15T05:03:41;11.97;;;11.17;;
6197;SDS011;3132;42.622;23.328;2023-04-15T05:06:06;12.30;;;11.40;;
6197;SDS011;3132;42.622;23.328;2023-04-15T05:08:32;12.53;;;11.47;;
6197;SDS011;3132;42.622;23.328;2023-04-15T05:10:58;12.27;;;11.17;;
6197;SDS011;3132;42.622;23.328;2023-04-15T05:13:23;12.50;;;11.30;;
6197;SDS011;3132;42.622;23.328;2023-04-15T05:15:49;13.43;;;12.13;;
6197;SDS011;3132;42.622;23.328;2023-04-15T05:18:14;12.37;;;11.23;;
6197;SDS011;3132;42.622;23.328;2023-04-15T05:20:40;12.17;;;11.17;;
6197;SDS011;3132;42.622;23.328;2023-04-15T05:23:05;12.73;;;11.20;;
6197;SDS011;3132;42.622;23.328;2023-04-15T05:25:30;12.87;;;11.97;;
6197;SDS011;3132;42.622;23.328;2023-04-15T05:27:56;11.17;;;10.33;;
6197;SDS011;3132;42.622;23.328;2023-04-15T05:30:21;12.63;;;11.53;;
6197;SDS011;3132;42.622;23.328;2023-04-15T05:32:47;11.40;;;10.60;;
6197;SDS011;3132;42.622;23.328;2023-04-15T05:35:12;11.07;;;10.30;;
6197;SDS011;3132;42.622;23.328;2023-04-15T05:37:37;9.70;;;9.13;;
6197;SDS011;3132;42.622;23.328;2023-04-15T05:40:03;10.33;;;9.57;;
6197;SDS011;3132;42.622;23.328;2023-04-15T05:42:28;11.10;;;10.03;;
6197;SDS011;3132;42.622;23.328;2023-04-15T05:44:54;10.50;;;9.70;;
6197;SDS011;3132;42.622;23.328;2023-04-15T05:47:20;11.27;;;10.47;;
6197;SDS011;3132;42.622;23.328;2023-04-15T05:49:45;11.97;;;10.83;;
6197;SDS011;3132;42.622;23.328;2023-04-15T05:52:11;11.80;;;10.57;;
6197;SDS011;3132;42.622;23.328;2023-04-15T05:54:36;12.60;;;11.50;;
6197;SDS011;3132;42.622;23.328;2023-04-15T05:57:02;11.00;;;10.07;;
6197;SDS011;3132;42.622;23.328;2023-04-15T05:59:28;12.97;;;11.77;;
6197;SDS011;3132;42.622;23.328;2023-04-15T06:01:53;14.17;;;12.90;;
6197;SDS011;3132;42.622;23.328;2023-04-15T06:04:19;12.57;;;11.47;;
6197;SDS011;3132;42.622;23.328;2023-04-15T06:06:44;12.67;;;11.57;;
6197;SDS011;3132;42.622;23.328;2023-04-15T06:09:10;11.37;;;10.47;;
6197;SDS011;3132;42.622;23.328;2023-04-15T06:11:35;9.57;;;8.90;;
6197;SDS011;3132;42.622;23.328;2023-04-15T06:14:01;11.93;;;9.40;;
6197;SDS011;3132;42.622;23.328;2023-04-15T06:16:26;11.37;;;10.33;;
6197;SDS011;3132;42.622;23.328;2023-04-15T06:18:52;11.67;;;10.70;;
6197;SDS011;3132;42.622;23.328;2023-04-15T06:21:17;10.23;;;9.47;;
6197;SDS011;3132;42.622;23.328;2023-04-15T06:23:43;10.43;;;9.73;;
6197;SDS011;3132;42.622;23.328;2023-04-15T06:26:08;11.97;;;11.07;;
6197;SDS011;3132;42.622;23.328;2023-04-15T06:28:34;10.93;;;10.20;;
6197;SDS011;3132;42.622;23.328;2023-04-15T06:30:59;10.97;;;10.23;;
6197;SDS011;3132;42.622;23.328;2023-04-15T06:33:25;12.13;;;11.13;;
6197;SDS011;3132;42.622;23.328;2023-04-15T06:35:51;11.50;;;10.43;;
6197;SDS011;3132;42.622;23.328;2023-04-15T06:38:17;11.07;;;10.20;;
6197;SDS011;3132;42.622;23.328;2023-04-15T06:40:42;11.23;;;10.47;;
6197;SDS011;3132;42.622;23.328;2023-04-15T06:43:08;11.50;;;10.57;;
6197;SDS011;3132;42.622;23.328;2023-04-15T06:45:34;10.93;;;10.17;;
6197;SDS011;3132;42.622;23.328;2023-04-15T06:47:59;11.23;;;10.43;;
6197;SDS011;3132;42.622;23.328;2023-04-15T06:50:25;11.77;;;10.80;;
6197;SDS011;3132;42.622;23.328;2023-04-15T06:52:52;10.90;;;10.10;;
6197;SDS011;3132;42.622;23.328;2023-04-15T06:55:18;9.03;;;8.53;;
6197;SDS011;3132;42.622;23.328;2023-04-15T06:57:44;11.23;;;9.57;;
6197;SDS011;3132;42.622;23.328;2023-04-15T07:00:09;10.93;;;10.10;;
6197;SDS011;3132;42.622;23.328;2023-04-15T07:02:36;10.67;;;9.80;;
6197;SDS011;3132;42.622;23.328;2023-04-15T07:05:01;11.67;;;10.77;;
6197;SDS011;3132;42.622;23.328;2023-04-15T07:07:27;11.30;;;10.50;;
6197;SDS011;3132;42.622;23.328;2023-04-15T07:09:52;10.53;;;9.70;;
6197;SDS011;3132;42.622;23.328;2023-04-15T07:12:18;10.93;;;9.93;;
6197;SDS011;3132;42.622;23.328;2023-04-15T07:14:43;10.93;;;10.07;;
6197;SDS011;3132;42.622;23.328;2023-04-15T07:17:09;10.33;;;9.63;;
6197;SDS011;3132;42.622;23.328;2023-04-15T07:19:34;12.23;;;11.27;;
6197;SDS011;3132;42.622;23.328;2023-04-15T07:22:00;10.60;;;9.90;;
6197;SDS011;3132;42.622;23.328;2023-04-15T07:24:25;10.93;;;10.10;;
6197;SDS011;3132;42.622;23.328;2023-04-15T07:26:52;10.43;;;9.63;;
6197;SDS011;3132;42.622;23.328;2023-04-15T07:29:18;11.00;;;9.90;;
6197;SDS011;3132;42.622;23.328;2023-04-15T07:31:44;11.07;;;10.07;;
6197;SDS011;3132;42.622;23.328;2023-04-15T07:34:09;9.97;;;9.27;;
6197;SDS011;3132;42.622;23.328;2023-04-15T07:36:35;11.20;;;10.50;;
6197;SDS011;3132;42.622;23.328;2023-04-15T07:39:00;11.57;;;10.67;;
6197;SDS011;3132;42.622;23.328;2023-04-15T07:41:28;10.27;;;9.53;;
6197;SDS011;3132;42.622;23.328;2023-04-15T07:43:54;9.70;;;8.97;;
6197;SDS011;3132;42.622;23.328;2023-04-15T07:46:19;11.17;;;10.17;;
6197;SDS011;3132;42.622;23.328;2023-04-15T07:48:44;11.43;;;10.43;;
6197;SDS011;3132;42.622;23.328;2023-04-15T07:51:10;10.37;;;9.67;;
6197;SDS011;3132;42.622;23.328;2023-04-15T07:53:36;14.63;;;10.57;;
6197;SDS011;3132;42.622;23.328;2023-04-15T07:56:02;10.50;;;9.87;;
6197;SDS011;3132;42.622;23.328;2023-04-15T07:58:27;12.73;;;12.03;;
6197;SDS011;3132;42.622;23.328;2023-04-15T08:00:53;12.07;;;11.33;;
6197;SDS011;3132;42.622;23.328;2023-04-15T08:03:20;10.50;;;9.80;;
6197;SDS011;3132;42.622;23.328;2023-04-15T08:05:46;10.17;;;9.37;;
6197;SDS011;3132;42.622;23.328;2023-04-15T08:08:11;9.53;;;9.03;;
6197;SDS011;3132;42.622;23.328;2023-04-15T08:10:37;9.57;;;8.97;;
6197;SDS011;3132;42.622;23.328;2023-04-15T08:13:02;9.30;;;8.70;;
6197;SDS011;3132;42.622;23.328;2023-04-15T08:15:28;11.70;;;10.90;;
6197;SDS011;3132;42.622;23.328;2023-04-15T08:17:53;10.40;;;9.50;;
6197;SDS011;3132;42.622;23.328;2023-04-15T08:20:19;9.80;;;9.10;;
6197;SDS011;3132;42.622;23.328;2023-04-15T08:22:44;8.57;;;7.93;;
6197;SDS011;3132;42.622;23.328;2023-04-15T08:25:11;10.03;;;9.17;;
6197;SDS011;3132;42.622;23.328;2023-04-15T08:27:37;10.53;;;9.67;;
6197;SDS011;3132;42.622;23.328;2023-04-15T08:30:02;10.77;;;10.07;;
6197;SDS011;3132;42.622;23.328;2023-04-15T08:32:28;9.97;;;9.37;;
6197;SDS011;3132;42.622;23.328;2023-04-15T08:34:53;8.70;;;8.23;;
6197;SDS011;3132;42.622;23.328;2023-04-15T08:37:19;9.53;;;8.83;;
6197;SDS011;3132;42.622;23.328;2023-04-15T08:39:45;9.60;;;9.10;;
6197;SDS011;3132;42.622;23.328;2023-04-15T08:42:11;9.23;;;8.50;;
6197;SDS011;3132;42.622;23.328;2023-04-15T08:44:42;9.20;;;8.67;;
6197;SDS011;3132;42.622;23.328;2023-04-15T08:47:08;9.17;;;8.57;;
6197;SDS011;3132;42.622;23.328;2023-04-15T08:49:42;10.13;;;9.43;;
6197;SDS011;3132;42.622;23.328;2023-04-15T08:52:08;8.23;;;7.93;;
6197;SDS011;3132;42.622;23.328;2023-04-15T08:54:34;8.53;;;8.03;;
6197;SDS011;3132;42.622;23.328;2023-04-15T08:57:00;8.27;;;7.87;;
6197;SDS011;3132;42.622;23.328;2023-04-15T08:59:29;9.10;;;8.50;;
6197;SDS011;3132;42.622;23.328;2023-04-15T09:01:54;9.03;;;8.40;;
6197;SDS011;3132;42.622;23.328;2023-04-15T09:04:21;9.07;;;8.30;;
6197;SDS011;3132;42.622;23.328;2023-04-15T09:06:46;8.53;;;7.90;;
6197;SDS011;3132;42.622;23.328;2023-04-15T09:09:12;9.90;;;9.07;;
6197;SDS011;3132;42.622;23.328;2023-04-15T09:11:38;7.77;;;7.37;;
6197;SDS011;3132;42.622;23.328;2023-04-15T09:14:04;7.97;;;7.67;;
6197;SDS011;3132;42.622;23.328;2023-04-15T09:16:30;8.73;;;8.23;;
6197;SDS011;3132;42.622;23.328;2023-04-15T09:18:55;7.43;;;7.17;;
6197;SDS011;3132;42.622;23.328;2023-04-15T09:21:21;8.43;;;8.03;;
6197;SDS011;3132;42.622;23.328;2023-04-15T09:24:20;8.67;;;8.27;;
6197;SDS011;3132;42.622;23.328;2023-04-15T09:26:39;9.80;;;9.10;;
6197;SDS011;3132;42.622;23.328;2023-04-15T09:29:05;9.53;;;8.20;;
6197;SDS011;3132;42.622;23.328;2023-04-15T09:31:35;9.73;;;9.03;;
6197;SDS011;3132;42.622;23.328;2023-04-15T09:34:01;7.53;;;7.20;;
6197;SDS011;3132;42.622;23.328;2023-04-15T09:36:26;8.20;;;7.73;;
6197;SDS011;3132;42.622;23.328;2023-04-15T09:38:58;7.63;;;7.23;;
6197;SDS011;3132;42.622;23.328;2023-04-15T09:41:25;7.53;;;7.23;;
6197;SDS011;3132;42.622;23.328;2023-04-15T09:43:50;6.83;;;6.53;;
6197;SDS011;3132;42.622;23.328;2023-04-15T09:46:16;7.83;;;7.43;;
6197;SDS011;3132;42.622;23.328;2023-04-15T09:48:41;7.80;;;7.50;;
6197;SDS011;3132;42.622;23.328;2023-04-15T09:51:07;7.33;;;7.03;;
6197;SDS011;3132;42.622;23.328;2023-04-15T09:53:33;7.53;;;7.03;;
6197;SDS011;3132;42.622;23.328;2023-04-15T09:56:00;7.20;;;6.83;;
6197;SDS011;3132;42.622;23.328;2023-04-15T09:58:27;7.57;;;7.27;;
6197;SDS011;3132;42.622;23.328;2023-04-15T10:00:55;8.20;;;7.63;;
6197;SDS011;3132;42.622;23.328;2023-04-15T10:05:50;9.80;;;9.13;;
6197;SDS011;3132;42.622;23.328;2023-04-15T10:08:26;11.20;;;10.40;;
6197;SDS011;3132;42.622;23.328;2023-04-15T10:10:53;9.10;;;8.43;;
6197;SDS011;3132;42.622;23.328;2023-04-15T10:13:23;10.00;;;9.30;;
6197;SDS011;3132;42.622;23.328;2023-04-15T10:15:57;9.90;;;9.13;;
6197;SDS011;3132;42.622;23.328;2023-04-15T10:18:23;9.10;;;8.60;;
6197;SDS011;3132;42.622;23.328;2023-04-15T10:20:51;7.77;;;7.47;;
6197;SDS011;3132;42.622;23.328;2023-04-15T10:23:17;7.87;;;7.57;;
6197;SDS011;3132;42.622;23.328;2023-04-15T10:25:48;8.00;;;7.50;;
6197;SDS011;3132;42.622;23.328;2023-04-15T10:28:15;8.63;;;8.27;;
6197;SDS011;3132;42.622;23.328;2023-04-15T10:30:42;7.33;;;6.93;;
6197;SDS011;3132;42.622;23.328;2023-04-15T10:33:08;7.90;;;7.53;;
6197;SDS011;3132;42.622;23.328;2023-04-15T10:35:35;8.83;;;8.37;;
6197;SDS011;3132;42.622;23.328;2023-04-15T10:38:01;7.53;;;7.23;;
6197;SDS011;3132;42.622;23.328;2023-04-15T10:42:59;9.40;;;8.80;;
6197;SDS011;3132;42.622;23.328;2023-04-15T10:45:32;9.10;;;8.40;;
6197;SDS011;3132;42.622;23.328;2023-04-15T10:48:01;8.40;;;7.80;;
6197;SDS011;3132;42.622;23.328;2023-04-15T10:50:29;8.83;;;8.33;;
6197;SDS011;3132;42.622;23.328;2023-04-15T10:52:55;7.97;;;7.63;;
6197;SDS011;3132;42.622;23.328;2023-04-15T10:55:22;12.73;;;10.60;;
6197;SDS011;3132;42.622;23.328;2023-04-15T10:57:50;7.87;;;7.47;;
6197;SDS011;3132;42.622;23.328;2023-04-15T11:00:21;9.17;;;8.60;;
6197;SDS011;3132;42.622;23.328;2023-04-15T11:02:53;8.17;;;7.77;;
6197;SDS011;3132;42.622;23.328;2023-04-15T11:05:21;7.80;;;7.17;;
6197;SDS011;3132;42.622;23.328;2023-04-15T11:07:50;7.90;;;7.50;;
6197;SDS011;3132;42.622;23.328;2023-04-15T11:12:43;7.43;;;7.13;;
6197;SDS011;3132;42.622;23.328;2023-04-15T11:17:56;8.00;;;7.60;;
6197;SDS011;3132;42.622;23.328;2023-04-15T11:20:23;8.80;;;8.30;;
6197;SDS011;3132;42.622;23.328;2023-04-15T11:22:49;7.30;;;6.97;;
6197;SDS011;3132;42.622;23.328;2023-04-15T11:25:21;7.40;;;7.10;;
6197;SDS011;3132;42.622;23.328;2023-04-15T11:27:47;7.77;;;7.30;;
6197;SDS011;3132;42.622;23.328;2023-04-15T11:30:24;6.80;;;6.50;;
6197;SDS011;3132;42.622;23.328;2023-04-15T11:32:50;7.40;;;7.10;;
6197;SDS011;3132;42.622;23.328;2023-04-15T11:35:18;7.87;;;7.40;;
6197;SDS011;3132;42.622;23.328;2023-04-15T11:37:44;7.50;;;7.20;;
6197;SDS011;3132;42.622;23.328;2023-04-15T11:40:10;7.63;;;7.17;;
6197;SDS011;3132;42.622;23.328;2023-04-15T11:42:36;8.20;;;7.70;;
6197;SDS011;3132;42.622;23.328;2023-04-15T11:45:08;7.67;;;7.23;;
6197;SDS011;3132;42.622;23.328;2023-04-15T11:47:40;7.07;;;6.87;;
6197;SDS011;3132;42.622;23.328;2023-04-15T11:50:22;7.60;;;7.30;;
6197;SDS011;3132;42.622;23.328;2023-04-15T11:55:23;8.40;;;7.93;;
6197;SDS011;3132;42.622;23.328;2023-04-15T11:58:35;7.67;;;7.37;;
6197;SDS011;3132;42.622;23.328;2023-04-15T12:00:38;7.47;;;7.17;;
6197;SDS011;3132;42.622;23.328;2023-04-15T12:06:17;7.37;;;6.87;;
6197;SDS011;3132;42.622;23.328;2023-04-15T12:08:57;7.70;;;7.40;;
6197;SDS011;3132;42.622;23.328;2023-04-15T12:14:02;9.43;;;9.03;;
6197;SDS011;3132;42.622;23.328;2023-04-15T12:16:35;7.73;;;7.43;;
6197;SDS011;3132;42.622;23.328;2023-04-15T12:19:06;8.33;;;7.87;;
6197;SDS011;3132;42.622;23.328;2023-04-15T12:21:34;8.50;;;8.10;;
6197;SDS011;3132;42.622;23.328;2023-04-15T12:24:02;7.67;;;7.23;;
6197;SDS011;3132;42.622;23.328;2023-04-15T12:26:36;8.03;;;7.73;;
6197;SDS011;3132;42.622;23.328;2023-04-15T12:29:25;7.80;;;7.30;;
6197;SDS011;3132;42.622;23.328;2023-04-15T12:31:54;8.37;;;7.93;;
6197;SDS011;3132;42.622;23.328;2023-04-15T12:34:25;7.37;;;7.07;;
6197;SDS011;3132;42.622;23.328;2023-04-15T12:36:54;7.30;;;6.83;;
6197;SDS011;3132;42.622;23.328;2023-04-15T12:39:24;8.33;;;7.87;;
6197;SDS011;3132;42.622;23.328;2023-04-15T12:41:51;7.57;;;7.00;;
6197;SDS011;3132;42.622;23.328;2023-04-15T12:44:17;7.67;;;7.37;;
6197;SDS011;3132;42.622;23.328;2023-04-15T12:46:43;7.50;;;7.03;;
6197;SDS011;3132;42.622;23.328;2023-04-15T12:49:08;8.47;;;7.97;;
6197;SDS011;3132;42.622;23.328;2023-04-15T12:51:33;7.53;;;7.13;;
6197;SDS011;3132;42.622;23.328;2023-04-15T12:53:59;8.03;;;7.60;;
6197;SDS011;3132;42.622;23.328;2023-04-15T12:56:25;7.97;;;7.37;;
6197;SDS011;3132;42.622;23.328;2023-04-15T12:58:50;8.43;;;7.87;;
6197;SDS011;3132;42.622;23.328;2023-04-15T13:01:16;7.93;;;7.63;;
6197;SDS011;3132;42.622;23.328;2023-04-15T13:03:42;7.73;;;7.43;;
6197;SDS011;3132;42.622;23.328;2023-04-15T13:06:08;6.90;;;6.60;;
6197;SDS011;3132;42.622;23.328;2023-04-15T13:08:33;9.13;;;8.53;;
6197;SDS011;3132;42.622;23.328;2023-04-15T13:10:58;7.37;;;7.00;;
6197;SDS011;3132;42.622;23.328;2023-04-15T13:13:24;7.23;;;6.93;;
6197;SDS011;3132;42.622;23.328;2023-04-15T13:15:50;7.37;;;7.07;;
6197;SDS011;3132;42.622;23.328;2023-04-15T13:18:15;8.37;;;8.07;;
6197;SDS011;3132;42.622;23.328;2023-04-15T13:20:40;7.43;;;6.93;;
6197;SDS011;3132;42.622;23.328;2023-04-15T13:23:06;7.97;;;7.37;;
6197;SDS011;3132;42.622;23.328;2023-04-15T13:25:31;7.80;;;7.50;;
6197;SDS011;3132;42.622;23.328;2023-04-15T13:27:57;7.73;;;7.43;;
6197;SDS011;3132;42.622;23.328;2023-04-15T13:30:22;7.20;;;6.90;;
6197;SDS011;3132;42.622;23.328;2023-04-15T13:32:48;7.70;;;7.20;;
6197;SDS011;3132;42.622;23.328;2023-04-15T13:35:14;8.23;;;7.83;;
6197;SDS011;3132;42.622;23.328;2023-04-15T13:37:40;7.80;;;7.50;;
6197;SDS011;3132;42.622;23.328;2023-04-15T13:40:06;7.93;;;7.60;;
6197;SDS011;3132;42.622;23.328;2023-04-15T13:42:32;7.50;;;7.10;;
6197;SDS011;3132;42.622;23.328;2023-04-15T13:44:57;6.97;;;6.77;;
6197;SDS011;3132;42.622;23.328;2023-04-15T13:47:22;8.13;;;7.73;;
6197;SDS011;3132;42.622;23.328;2023-04-15T13:49:48;7.53;;;7.07;;
6197;SDS011;3132;42.622;23.328;2023-04-15T13:52:13;8.07;;;7.67;;
6197;SDS011;3132;42.622;23.328;2023-04-15T13:54:39;7.93;;;7.53;;
6197;SDS011;3132;42.622;23.328;2023-04-15T13:57:04;7.07;;;6.77;;
6197;SDS011;3132;42.622;23.328;2023-04-15T13:59:31;7.43;;;7.13;;
6197;SDS011;3132;42.622;23.328;2023-04-15T14:01:57;9.33;;;6.93;;
6197;SDS011;3132;42.622;23.328;2023-04-15T14:04:22;8.37;;;8.03;;
6197;SDS011;3132;42.622;23.328;2023-04-15T14:06:48;7.37;;;6.97;;
6197;SDS011;3132;42.622;23.328;2023-04-15T14:09:13;7.80;;;7.50;;
6197;SDS011;3132;42.622;23.328;2023-04-15T14:11:39;7.33;;;7.03;;
6197;SDS011;3132;42.622;23.328;2023-04-15T14:14:05;8.30;;;7.90;;
6197;SDS011;3132;42.622;23.328;2023-04-15T14:16:33;7.33;;;7.00;;
6197;SDS011;3132;42.622;23.328;2023-04-15T14:18:59;6.93;;;6.67;;
6197;SDS011;3132;42.622;23.328;2023-04-15T14:21:25;7.03;;;6.70;;
6197;SDS011;3132;42.622;23.328;2023-04-15T14:23:52;7.67;;;7.27;;
6197;SDS011;3132;42.622;23.328;2023-04-15T14:26:18;8.30;;;7.80;;
6197;SDS011;3132;42.622;23.328;2023-04-15T14:28:43;8.90;;;8.30;;
6197;SDS011;3132;42.622;23.328;2023-04-15T14:31:09;8.23;;;7.73;;
6197;SDS011;3132;42.622;23.328;2023-04-15T14:33:34;8.13;;;7.80;;
6197;SDS011;3132;42.622;23.328;2023-04-15T14:36:00;8.57;;;8.13;;
6197;SDS011;3132;42.622;23.328;2023-04-15T14:38:25;8.63;;;8.23;;
6197;SDS011;3132;42.622;23.328;2023-04-15T14:40:50;7.37;;;7.07;;
6197;SDS011;3132;42.622;23.328;2023-04-15T14:43:16;8.37;;;7.97;;
6197;SDS011;3132;42.622;23.328;2023-04-15T14:45:41;7.70;;;7.40;;
6197;SDS011;3132;42.622;23.328;2023-04-15T14:48:06;7.13;;;6.83;;
6197;SDS011;3132;42.622;23.328;2023-04-15T14:50:34;8.27;;;7.77;;
6197;SDS011;3132;42.622;23.328;2023-04-15T14:52:59;7.00;;;6.77;;
6197;SDS011;3132;42.622;23.328;2023-04-15T14:55:25;7.07;;;6.67;;
6197;SDS011;3132;42.622;23.328;2023-04-15T14:57:50;7.70;;;7.30;;
6197;SDS011;3132;42.622;23.328;2023-04-15T15:00:16;7.33;;;6.93;;
6197;SDS011;3132;42.622;23.328;2023-04-15T15:02:41;6.77;;;6.43;;
6197;SDS011;3132;42.622;23.328;2023-04-15T15:05:08;7.60;;;7.20;;